San Jose, Costa Rica
Current Conditions -  °F | °C
As of 10:00 AM on Saturday 25 Oct 2014 (Local Time) from MROC Reporting Station
Scattered Clouds Scattered Clouds  
Wind Chill: 81°   Ceiling: Unl
Heat Index: 83°   Visibility: 6mi
Dew Point: 66°   Wind: 3mph
Humidity: 61%   Direction: 260°W
Pressure: 30.04"   Gusts: NA
Location:  10°N, 84.22°W
Report Text: MROC 251600Z 26003KT 9999 FEW040 SCT250 27/19 A3004 NOSIG
Loading
Personal Weather Stations






























Interactive Weather Map
Tropical Storm Tracking
New forecast layout! Learn more

10-Day Weather Forecast

Advertisements
Track Severe Weather on mobile